Time;durP1;ratioP1;P1;durP2;ratioP2;P2;SDS_P1;SDS_P2;PMS_P1;PMS_P2;Temp;Humidity;BMP_temperature;BMP_pressure;BME280_temperature;BME280_humidity;BME280_pressure;Samples;Min_cycle;Max_cycle;Signal;HPM_P1;HPM_P2
2023/08/10 00:01:26;;;;;;;2.23;1.60;;;20.10;64.00;;;;;;6170276;23;20369;-72
2023/08/10 00:03:54;;;;;;;2.40;1.40;;;20.10;63.80;;;;;;6167091;23;21266;-72
2023/08/10 00:06:23;;;;;;;1.80;1.40;;;20.10;63.90;;;;;;6169621;23;20864;-72
2023/08/10 00:08:53;;;;;;;2.57;1.50;;;20.10;63.80;;;;;;6167536;23;20434;-72
2023/08/10 00:11:21;;;;;;;2.63;1.30;;;20.10;63.70;;;;;;6168540;23;20398;-72
2023/08/10 00:13:50;;;;;;;1.57;1.37;;;20.10;63.70;;;;;;6168150;23;20456;-72
2023/08/10 00:16:18;;;;;;;1.70;1.20;;;20.10;63.70;;;;;;6170308;23;20413;-72
2023/08/10 00:18:46;;;;;;;2.17;1.47;;;20.10;63.60;;;;;;6168972;23;20766;-72
2023/08/10 00:21:15;;;;;;;3.17;1.37;;;20.10;63.60;;;;;;6169865;23;20408;-72
2023/08/10 00:23:43;;;;;;;1.90;1.40;;;20.10;63.60;;;;;;6143187;23;20433;-72
2023/08/10 00:26:13;;;;;;;1.47;1.20;;;20.10;63.70;;;;;;6170670;23;20432;-72
2023/08/10 00:28:41;;;;;;;1.90;1.40;;;20.10;64.70;;;;;;6168308;23;20772;-72
2023/08/10 00:31:09;;;;;;;1.90;1.40;;;20.10;63.60;;;;;;6170442;23;20484;-72
2023/08/10 00:33:38;;;;;;;1.40;1.10;;;20.10;63.40;;;;;;6169010;23;20527;-72
2023/08/10 00:36:07;;;;;;;2.33;1.30;;;20.00;63.20;;;;;;6172404;23;20443;-72
2023/08/10 00:38:38;;;;;;;2.03;1.60;;;20.00;63.30;;;;;;6170089;23;20463;-72
2023/08/10 00:41:07;;;;;;;1.70;1.43;;;20.10;63.30;;;;;;6172488;23;20376;-72
2023/08/10 00:43:37;;;;;;;2.10;1.50;;;20.10;63.30;;;;;;6169609;23;20427;-72
2023/08/10 00:46:10;;;;;;;2.43;1.40;;;20.10;63.30;;;;;;6146797;23;20427;-72
2023/08/10 00:48:38;;;;;;;1.60;1.20;;;20.10;63.30;;;;;;6171231;23;20940;-72
2023/08/10 00:51:07;;;;;;;1.80;1.50;;;20.10;63.30;;;;;;6171907;23;20458;-72
2023/08/10 00:53:36;;;;;;;1.90;1.10;;;20.00;63.30;;;;;;6170410;23;20521;-72
2023/08/10 00:56:06;;;;;;;1.50;1.20;;;20.10;63.60;;;;;;6172528;23;20895;-72
2023/08/10 00:58:35;;;;;;;2.40;1.30;;;20.10;63.40;;;;;;6172010;23;20480;-72
2023/08/10 01:01:05;;;;;;;2.00;1.60;;;20.10;63.30;;;;;;6173582;23;20434;-72
2023/08/10 01:03:33;;;;;;;2.90;1.67;;;20.00;63.30;;;;;;6170710;22;20848;-72
2023/08/10 01:06:10;;;;;;;1.60;1.50;;;20.00;63.50;;;;;;6170577;23;20459;-72
2023/08/10 01:08:47;;;;;;;2.73;1.93;;;20.00;63.30;;;;;;6169682;23;20757;-72
2023/08/10 01:11:24;;;;;;;1.83;1.50;;;20.00;63.40;;;;;;6171329;23;20425;-72
2023/08/10 01:14:03;;;;;;;1.87;1.60;;;20.00;63.60;;;;;;6168250;23;20468;-72
2023/08/10 01:16:38;;;;;;;1.80;1.40;;;20.00;63.40;;;;;;6171329;23;20410;-72
2023/08/10 01:19:10;;;;;;;1.80;1.50;;;20.00;63.30;;;;;;6169329;23;20435;-72
2023/08/10 01:21:49;;;;;;;1.93;1.60;;;20.00;63.10;;;;;;6170887;23;20460;-72
2023/08/10 01:24:26;;;;;;;1.50;1.37;;;20.00;63.00;;;;;;6168131;23;20838;-72
2023/08/10 01:26:56;;;;;;;1.70;1.50;;;20.00;63.20;;;;;;6171067;23;20804;-72
2023/08/10 01:29:25;;;;;;;2.17;1.10;;;20.00;63.20;;;;;;6171447;23;20401;-72
2023/08/10 01:31:54;;;;;;;1.80;1.40;;;20.00;64.30;;;;;;6171883;23;20381;-72
2023/08/10 01:34:23;;;;;;;1.43;1.00;;;20.00;63.10;;;;;;6170279;23;20450;-72
2023/08/10 01:36:51;;;;;;;3.17;1.47;;;20.00;64.40;;;;;;6172442;23;20779;-72
2023/08/10 01:39:20;;;;;;;1.73;1.17;;;20.00;63.10;;;;;;6170710;23;20398;-72
2023/08/10 01:41:48;;;;;;;1.87;1.23;;;20.00;63.00;;;;;;6170570;23;20490;-72
2023/08/10 01:44:18;;;;;;;1.77;1.10;;;20.00;63.00;;;;;;6169800;23;20425;-72
2023/08/10 01:46:49;;;;;;;4.73;1.70;;;20.00;63.00;;;;;;6170559;23;20416;-72
2023/08/10 01:49:20;;;;;;;1.47;1.33;;;20.00;63.00;;;;;;6168764;23;20436;-72
2023/08/10 01:51:50;;;;;;;2.30;1.50;;;20.00;63.00;;;;;;6171281;23;20394;-72
2023/08/10 01:54:21;;;;;;;2.50;1.60;;;20.00;63.00;;;;;;6170919;23;20414;-72
2023/08/10 01:56:49;;;;;;;1.63;1.27;;;20.00;63.00;;;;;;6170334;23;20421;-72
2023/08/10 01:59:19;;;;;;;1.30;1.10;;;20.00;63.00;;;;;;6144655;23;20431;-72
2023/08/10 02:01:48;;;;;;;1.33;1.20;;;20.00;63.10;;;;;;6173278;23;20392;-72
2023/08/10 02:04:17;;;;;;;2.03;1.30;;;20.00;63.00;;;;;;6174165;23;20419;-72
2023/08/10 02:06:45;;;;;;;1.50;1.20;;;20.00;62.90;;;;;;6174499;23;20428;-72
2023/08/10 02:09:14;;;;;;;1.23;1.13;;;20.00;63.00;;;;;;6173301;23;20478;-72
2023/08/10 02:11:42;;;;;;;1.53;1.33;;;20.00;63.00;;;;;;6174265;23;20412;-72
2023/08/10 02:14:11;;;;;;;1.70;1.20;;;20.00;63.10;;;;;;6173435;23;20440;-72
2023/08/10 02:16:41;;;;;;;1.73;1.30;;;20.00;63.20;;;;;;6174508;23;20446;-72
2023/08/10 02:19:09;;;;;;;2.80;1.63;;;20.00;63.10;;;;;;6172730;23;20472;-72
2023/08/10 02:21:38;;;;;;;1.33;1.17;;;20.00;63.10;;;;;;6176365;23;20373;-72
2023/08/10 02:24:07;;;;;;;1.70;1.40;;;19.90;62.80;;;;;;6172940;23;20436;-72
2023/08/10 02:26:35;;;;;;;1.73;1.60;;;19.90;62.80;;;;;;6174580;23;20405;-72
2023/08/10 02:29:04;;;;;;;2.30;1.77;;;19.90;63.00;;;;;;6173032;23;20970;-72
2023/08/10 02:31:33;;;;;;;1.67;1.00;;;19.90;62.90;;;;;;6174246;23;20401;-72
2023/08/10 02:34:03;;;;;;;1.80;1.60;;;19.90;63.10;;;;;;6172601;23;20459;-72
2023/08/10 02:36:31;;;;;;;1.90;1.30;;;19.90;63.00;;;;;;6176309;23;20768;-72
2023/08/10 02:39:00;;;;;;;2.53;1.63;;;19.90;63.00;;;;;;6174670;23;20499;-72
2023/08/10 02:41:29;;;;;;;1.60;1.30;;;19.90;63.00;;;;;;6175187;23;20452;-72
2023/08/10 02:43:57;;;;;;;2.13;1.57;;;19.90;63.00;;;;;;6173912;23;20489;-72
2023/08/10 02:46:25;;;;;;;2.60;1.43;;;19.90;62.90;;;;;;6150354;23;20474;-72
2023/08/10 02:48:55;;;;;;;1.73;1.20;;;19.90;63.10;;;;;;6173112;23;20455;-72
2023/08/10 02:51:25;;;;;;;1.80;1.23;;;19.90;63.00;;;;;;6150052;23;20405;-72
2023/08/10 02:53:53;;;;;;;1.53;1.40;;;19.90;63.00;;;;;;6163539;23;20446;-72
2023/08/10 02:56:22;;;;;;;1.90;1.37;;;19.90;63.00;;;;;;6174145;23;20451;-72
2023/08/10 02:58:50;;;;;;;2.10;1.63;;;19.90;63.00;;;;;;6173725;23;20436;-72
2023/08/10 03:01:18;;;;;;;1.83;1.10;;;19.90;62.90;;;;;;6174927;23;20447;-72
2023/08/10 03:03:47;;;;;;;2.07;1.50;;;19.90;62.90;;;;;;6169289;23;21006;-72
2023/08/10 03:06:15;;;;;;;1.97;1.57;;;19.90;62.90;;;;;;6170959;23;20413;-72
2023/08/10 03:08:45;;;;;;;2.97;1.40;;;19.90;62.80;;;;;;6170477;23;20444;-72
2023/08/10 03:11:15;;;;;;;2.73;1.90;;;19.90;62.80;;;;;;6170803;23;20394;-72
2023/08/10 03:13:44;;;;;;;3.07;1.40;;;19.90;62.80;;;;;;6169128;23;20453;-72
2023/08/10 03:16:12;;;;;;;2.23;1.67;;;19.90;62.80;;;;;;6170820;23;20731;-72
2023/08/10 03:18:41;;;;;;;2.33;1.57;;;19.90;62.70;;;;;;6169524;23;20433;-72
2023/08/10 03:21:10;;;;;;;1.90;1.50;;;19.90;62.80;;;;;;6170294;23;20878;-72
2023/08/10 03:23:38;;;;;;;1.60;1.10;;;19.90;62.80;;;;;;6169423;23;20434;-72
2023/08/10 03:26:08;;;;;;;1.67;1.23;;;19.90;62.80;;;;;;6169445;23;20424;-72
2023/08/10 03:28:36;;;;;;;2.30;1.43;;;19.90;62.90;;;;;;6169677;23;20953;-72
2023/08/10 03:31:05;;;;;;;2.30;1.23;;;19.90;62.80;;;;;;6170961;23;20461;-72
2023/08/10 03:33:37;;;;;;;1.60;1.30;;;19.90;62.90;;;;;;6168856;22;20995;-72
2023/08/10 03:36:06;;;;;;;1.57;1.23;;;19.80;62.80;;;;;;6170881;23;20428;-72
2023/08/10 03:38:35;;;;;;;1.50;1.20;;;19.90;63.00;;;;;;6170611;23;20437;-72
2023/08/10 03:41:04;;;;;;;3.83;1.20;;;19.80;62.90;;;;;;6171399;23;20469;-72
2023/08/10 03:43:34;;;;;;;1.40;1.23;;;19.80;63.00;;;;;;6169895;23;20429;-72
2023/08/10 03:46:05;;;;;;;1.70;1.30;;;19.80;63.00;;;;;;6170972;23;20442;-72
2023/08/10 03:48:34;;;;;;;2.00;1.20;;;19.80;62.90;;;;;;6169862;23;20445;-72
2023/08/10 03:51:04;;;;;;;1.23;1.00;;;19.80;63.10;;;;;;6172197;23;20432;-72
2023/08/10 03:53:33;;;;;;;1.87;1.37;;;19.80;63.10;;;;;;6170214;23;20432;-72
2023/08/10 03:56:01;;;;;;;1.63;1.33;;;19.80;63.10;;;;;;6169950;23;20419;-72
2023/08/10 03:58:29;;;;;;;2.33;2.13;;;19.80;63.10;;;;;;6169456;23;20547;-72
2023/08/10 04:01:01;;;;;;;2.30;1.20;;;19.80;63.10;;;;;;6170892;23;20412;-72
2023/08/10 04:03:31;;;;;;;2.03;1.47;;;19.80;63.10;;;;;;6169855;23;20440;-72
2023/08/10 04:05:59;;;;;;;2.20;1.73;;;19.80;63.10;;;;;;6172333;23;20499;-72
2023/08/10 04:08:28;;;;;;;1.80;1.30;;;19.80;63.00;;;;;;6171443;23;20440;-72
2023/08/10 04:10:56;;;;;;;2.10;1.77;;;19.80;63.00;;;;;;6172289;23;20951;-72
2023/08/10 04:13:24;;;;;;;1.80;1.50;;;19.80;62.90;;;;;;6171718;22;20489;-72
2023/08/10 04:15:53;;;;;;;1.70;1.20;;;19.80;63.10;;;;;;6172739;23;20916;-72
2023/08/10 04:18:23;;;;;;;1.97;1.27;;;19.80;63.10;;;;;;6171867;23;20932;-72
2023/08/10 04:20:52;;;;;;;2.30;1.23;;;19.80;62.90;;;;;;6171318;23;20892;-72
2023/08/10 04:23:20;;;;;;;1.73;1.30;;;19.80;62.90;;;;;;6170934;23;20460;-72
2023/08/10 04:25:49;;;;;;;1.30;1.17;;;19.80;63.10;;;;;;6172789;23;21388;-72
2023/08/10 04:28:17;;;;;;;2.90;1.30;;;19.80;63.00;;;;;;6171459;23;20476;-72
2023/08/10 04:30:46;;;;;;;1.23;0.90;;;19.80;63.00;;;;;;6172701;23;20450;-72
2023/08/10 04:33:14;;;;;;;1.73;1.30;;;19.80;63.10;;;;;;6173050;22;20435;-72
2023/08/10 04:35:44;;;;;;;1.37;1.27;;;19.80;63.10;;;;;;6172193;23;20741;-72
2023/08/10 04:38:12;;;;;;;1.23;1.00;;;19.80;63.10;;;;;;6172506;23;20432;-72
2023/08/10 04:40:41;;;;;;;2.00;1.40;;;19.70;63.10;;;;;;6173668;23;20397;-72
2023/08/10 04:43:09;;;;;;;1.47;1.10;;;19.70;63.10;;;;;;6170649;23;20991;-72
2023/08/10 04:45:38;;;;;;;1.43;1.10;;;19.70;63.10;;;;;;6172074;23;20412;-72
2023/08/10 04:48:07;;;;;;;2.60;1.47;;;19.80;63.20;;;;;;6172753;23;20410;-72
2023/08/10 04:50:35;;;;;;;1.60;1.10;;;19.70;63.10;;;;;;6170512;23;20432;-72
2023/08/10 04:53:05;;;;;;;2.23;1.60;;;19.70;63.10;;;;;;6169417;23;20468;-72
2023/08/10 04:55:33;;;;;;;1.70;1.30;;;19.70;63.10;;;;;;6169672;23;20423;-72
2023/08/10 04:58:02;;;;;;;2.00;1.10;;;19.70;63.10;;;;;;6171146;23;20400;-72
2023/08/10 05:00:30;;;;;;;1.63;1.33;;;19.70;63.10;;;;;;6171980;23;20404;-72
2023/08/10 05:02:58;;;;;;;1.90;1.43;;;19.70;63.00;;;;;;6170452;23;20495;-72
2023/08/10 05:05:27;;;;;;;1.63;1.20;;;19.70;63.10;;;;;;6170749;23;20439;-72
2023/08/10 05:07:55;;;;;;;3.20;1.40;;;19.70;63.00;;;;;;6172226;23;20379;-72
2023/08/10 05:10:25;;;;;;;2.27;1.53;;;19.70;63.10;;;;;;6172305;23;20428;-72
2023/08/10 05:12:53;;;;;;;1.67;1.20;;;19.70;63.10;;;;;;6172036;23;20373;-72
2023/08/10 05:15:22;;;;;;;1.40;1.20;;;19.70;62.90;;;;;;6172252;23;20435;-72
2023/08/10 05:17:50;;;;;;;1.60;1.43;;;19.70;63.00;;;;;;6172078;23;20423;-72
2023/08/10 05:20:19;;;;;;;2.50;1.40;;;19.70;63.20;;;;;;6171405;23;20431;-72
2023/08/10 05:22:47;;;;;;;1.70;1.20;;;19.70;62.90;;;;;;6170844;23;20440;-73
2023/08/10 05:25:16;;;;;;;1.53;1.07;;;19.70;63.10;;;;;;6171927;23;20431;-72
2023/08/10 05:27:48;;;;;;;1.80;1.10;;;19.70;63.10;;;;;;6171247;23;20728;-72
2023/08/10 05:30:16;;;;;;;2.07;1.60;;;19.70;63.10;;;;;;6171353;23;20796;-72
2023/08/10 05:32:44;;;;;;;2.60;1.47;;;19.70;63.10;;;;;;6171020;23;20455;-72
2023/08/10 05:35:14;;;;;;;1.70;1.10;;;19.70;63.00;;;;;;6171093;23;20416;-73
2023/08/10 05:37:42;;;;;;;2.10;1.33;;;19.70;63.10;;;;;;6172007;23;20373;-73
2023/08/10 05:40:12;;;;;;;2.30;1.30;;;19.70;63.10;;;;;;6172436;23;20385;-72
2023/08/10 05:42:42;;;;;;;2.50;2.00;;;19.70;63.00;;;;;;6170678;23;20410;-73
2023/08/10 05:45:15;;;;;;;2.37;1.37;;;19.70;63.30;;;;;;6173311;23;20760;-72
2023/08/10 05:47:45;;;;;;;1.90;1.20;;;19.60;63.10;;;;;;6171160;23;20428;-72
2023/08/10 05:50:14;;;;;;;2.10;1.40;;;19.60;63.00;;;;;;6171248;23;20516;-73
2023/08/10 05:52:44;;;;;;;1.80;1.53;;;19.60;62.90;;;;;;6173006;23;20369;-73
2023/08/10 05:55:13;;;;;;;3.13;1.83;;;19.60;62.90;;;;;;6171324;23;20420;-73
2023/08/10 05:57:42;;;;;;;2.60;1.53;;;19.60;63.00;;;;;;6170965;23;20379;-73
2023/08/10 06:00:13;;;;;;;1.77;1.30;;;19.60;63.00;;;;;;6171266;23;20896;-73
2023/08/10 06:02:42;;;;;;;1.60;1.20;;;19.60;62.90;;;;;;6170692;23;20438;-73
2023/08/10 06:05:12;;;;;;;2.10;1.30;;;19.60;63.00;;;;;;6170623;23;20432;-73
2023/08/10 06:07:41;;;;;;;2.43;1.40;;;19.60;63.00;;;;;;6170350;23;20442;-73
2023/08/10 06:10:09;;;;;;;2.40;1.30;;;19.60;62.90;;;;;;6170998;23;20432;-73
2023/08/10 06:12:38;;;;;;;1.60;1.43;;;19.60;63.00;;;;;;6171041;23;20412;-73
2023/08/10 06:15:07;;;;;;;1.43;1.20;;;19.60;63.00;;;;;;6172859;23;20503;-73
2023/08/10 06:17:37;;;;;;;3.10;1.30;;;19.60;62.90;;;;;;6170237;23;20978;-73
2023/08/10 06:20:09;;;;;;;1.83;1.47;;;19.60;63.00;;;;;;6170073;23;20744;-73
2023/08/10 06:22:39;;;;;;;2.00;1.33;;;19.60;63.00;;;;;;6171311;23;20806;-73
2023/08/10 06:25:09;;;;;;;1.70;1.17;;;19.60;62.90;;;;;;6171479;23;20428;-73
2023/08/10 06:27:37;;;;;;;2.23;1.77;;;19.60;62.60;;;;;;6170120;23;20435;-72
2023/08/10 06:30:09;;;;;;;1.13;0.80;;;19.60;62.90;;;;;;6170159;23;20426;-72
2023/08/10 06:32:40;;;;;;;2.00;1.40;;;19.60;62.90;;;;;;6170830;23;20979;-73
2023/08/10 06:35:10;;;;;;;1.70;0.90;;;19.60;62.90;;;;;;6171151;23;20506;-73
2023/08/10 06:37:39;;;;;;;2.00;1.40;;;19.60;62.90;;;;;;6171248;23;20481;-73
2023/08/10 06:40:09;;;;;;;2.00;1.63;;;19.60;62.90;;;;;;6172070;23;20407;-72
2023/08/10 06:42:38;;;;;;;2.20;1.47;;;19.60;62.80;;;;;;6172861;23;20387;-73
2023/08/10 06:45:15;;;;;;;1.80;1.10;;;19.60;62.80;;;;;;6170998;23;20751;-73
2023/08/10 06:47:44;;;;;;;2.27;1.77;;;19.60;62.80;;;;;;6171455;23;20440;-73
2023/08/10 06:50:13;;;;;;;2.40;1.30;;;19.60;62.60;;;;;;6171118;23;20422;-72
2023/08/10 06:52:41;;;;;;;1.60;1.27;;;19.60;62.70;;;;;;6170060;23;20695;-73
2023/08/10 06:55:12;;;;;;;2.07;1.63;;;19.60;62.70;;;;;;6171010;23;21030;-73
2023/08/10 06:57:41;;;;;;;3.10;1.77;;;19.60;62.60;;;;;;6169478;23;20435;-73
2023/08/10 07:00:19;;;;;;;3.13;1.40;;;19.60;62.60;;;;;;6172069;23;20395;-73
2023/08/10 07:02:53;;;;;;;1.80;1.60;;;19.60;62.50;;;;;;6173113;23;20748;-73
2023/08/10 07:05:25;;;;;;;1.70;1.40;;;19.60;62.60;;;;;;6172567;23;20464;-73
2023/08/10 07:07:54;;;;;;;1.60;1.13;;;19.60;62.80;;;;;;6172375;23;20391;-73
2023/08/10 07:10:23;;;;;;;2.20;1.40;;;19.60;63.00;;;;;;6167208;23;20628;-73
2023/08/10 07:12:51;;;;;;;2.20;1.40;;;19.60;63.00;;;;;;6170419;23;20389;-73
2023/08/10 07:15:20;;;;;;;4.03;1.50;;;19.60;64.40;;;;;;6171652;23;20438;-73
2023/08/10 07:17:48;;;;;;;2.20;1.27;;;19.60;62.70;;;;;;6171061;23;20411;-73
2023/08/10 07:20:19;;;;;;;1.53;1.20;;;19.60;62.80;;;;;;6167822;23;20910;-73
2023/08/10 07:22:48;;;;;;;1.67;1.27;;;19.60;62.80;;;;;;6169153;23;20443;-72
2023/08/10 07:25:18;;;;;;;1.40;1.00;;;19.60;62.80;;;;;;6170154;23;20416;-73
2023/08/10 07:27:48;;;;;;;1.43;1.03;;;19.60;62.60;;;;;;6168362;23;20388;-73
2023/08/10 07:30:16;;;;;;;1.60;1.30;;;19.60;62.70;;;;;;6171223;23;20480;-73
2023/08/10 07:32:45;;;;;;;1.47;1.20;;;19.60;62.70;;;;;;6169812;23;20516;-73
2023/08/10 07:35:13;;;;;;;2.13;0.90;;;19.60;62.70;;;;;;6170417;23;20431;-73
2023/08/10 07:37:43;;;;;;;1.60;1.23;;;19.60;62.70;;;;;;6168889;23;20393;-73
2023/08/10 07:40:12;;;;;;;1.27;0.80;;;19.60;62.60;;;;;;6170217;23;20404;-73
2023/08/10 07:42:40;;;;;;;2.23;1.20;;;19.60;62.50;;;;;;6167581;23;20440;-73
2023/08/10 07:45:10;;;;;;;1.53;1.17;;;19.60;62.40;;;;;;6167513;23;20473;-73
2023/08/10 07:47:39;;;;;;;1.43;1.20;;;19.60;62.50;;;;;;6171634;23;20396;-73
2023/08/10 07:50:08;;;;;;;3.63;1.17;;;19.60;62.30;;;;;;6170507;23;20396;-73
2023/08/10 07:52:37;;;;;;;1.23;0.80;;;19.60;62.30;;;;;;6169820;23;20432;-73
2023/08/10 07:55:07;;;;;;;3.63;1.20;;;19.60;62.40;;;;;;6171354;23;20531;-73
2023/08/10 07:57:36;;;;;;;1.80;1.27;;;19.60;62.40;;;;;;6171675;23;20387;-73
2023/08/10 08:00:05;;;;;;;1.53;1.00;;;19.60;62.40;;;;;;6171562;23;20962;-73
2023/08/10 08:02:40;;;;;;;1.60;1.20;;;19.60;62.30;;;;;;6171739;23;20441;-73
2023/08/10 08:05:09;;;;;;;1.40;1.00;;;19.60;62.30;;;;;;6170568;23;20458;-73
2023/08/10 08:07:37;;;;;;;1.30;0.90;;;19.70;62.50;;;;;;6170844;23;20945;-73
2023/08/10 08:10:07;;;;;;;1.30;0.80;;;19.60;62.20;;;;;;6170998;23;20878;-73
2023/08/10 08:12:36;;;;;;;1.80;1.00;;;19.60;62.20;;;;;;6169730;23;20837;-72
2023/08/10 08:15:05;;;;;;;1.83;1.30;;;19.60;62.30;;;;;;6170247;23;20404;-72
2023/08/10 08:18:12;;;;;;;2.50;1.40;;;19.60;62.20;;;;;;6170916;23;20439;-72
2023/08/10 08:20:40;;;;;;;1.40;1.00;;;19.60;62.30;;;;;;6171918;23;20820;-73
2023/08/10 08:23:09;;;;;;;1.60;1.00;;;19.60;62.30;;;;;;6168784;23;20437;-72
2023/08/10 08:25:39;;;;;;;1.57;1.10;;;19.60;62.30;;;;;;6170336;23;21035;-73
2023/08/10 08:28:08;;;;;;;1.60;1.10;;;19.60;62.20;;;;;;6170803;23;20436;-73
2023/08/10 08:30:36;;;;;;;1.47;1.00;;;19.70;62.40;;;;;;6170108;23;20393;-72
2023/08/10 08:33:05;;;;;;;1.50;1.10;;;19.70;62.20;;;;;;6171289;23;20473;-72
2023/08/10 08:35:33;;;;;;;1.30;1.00;;;19.70;62.30;;;;;;6169386;23;20419;-72
2023/08/10 08:38:02;;;;;;;1.67;1.20;;;19.70;62.30;;;;;;6168614;23;20917;-72
2023/08/10 08:40:30;;;;;;;2.13;1.40;;;19.70;62.10;;;;;;6170381;23;20959;-72
2023/08/10 08:43:03;;;;;;;1.73;1.03;;;19.70;62.20;;;;;;6169331;23;20410;-72
2023/08/10 08:45:32;;;;;;;1.20;1.00;;;19.70;62.30;;;;;;6171796;23;20504;-72
2023/08/10 08:48:03;;;;;;;1.87;1.20;;;19.70;62.30;;;;;;6170083;23;20474;-73
2023/08/10 08:50:32;;;;;;;2.03;1.03;;;19.70;62.40;;;;;;6169563;23;20385;-73
2023/08/10 08:53:01;;;;;;;1.87;1.10;;;19.70;62.40;;;;;;6170703;23;20428;-73
2023/08/10 08:55:30;;;;;;;1.37;1.27;;;19.70;62.20;;;;;;6172047;23;20440;-73
2023/08/10 08:58:00;;;;;;;1.77;1.33;;;19.70;62.20;;;;;;6171316;23;20432;-73
2023/08/10 09:00:31;;;;;;;1.37;0.87;;;19.70;62.20;;;;;;6173981;23;20450;-73
2023/08/10 09:02:59;;;;;;;1.30;1.00;;;19.70;62.20;;;;;;6170925;23;20756;-72
2023/08/10 09:05:29;;;;;;;1.60;1.10;;;19.70;62.20;;;;;;6171994;23;20416;-73
2023/08/10 09:07:58;;;;;;;1.40;1.10;;;19.70;62.30;;;;;;6171766;23;20398;-73
2023/08/10 09:10:27;;;;;;;1.87;1.07;;;19.70;62.30;;;;;;6171982;23;20364;-73
2023/08/10 09:12:56;;;;;;;2.00;1.40;;;19.70;62.20;;;;;;6172334;22;20823;-73
2023/08/10 09:15:27;;;;;;;1.03;0.77;;;19.70;62.20;;;;;;6170935;23;20901;-73
2023/08/10 09:17:56;;;;;;;3.67;1.40;;;19.70;62.20;;;;;;6170614;23;20951;-73
2023/08/10 09:20:26;;;;;;;1.33;0.97;;;19.70;62.20;;;;;;6169926;23;20415;-72
2023/08/10 09:22:57;;;;;;;1.20;1.00;;;19.70;62.20;;;;;;6169948;23;20436;-73
2023/08/10 09:25:26;;;;;;;1.00;0.80;;;19.70;62.20;;;;;;6171224;23;21005;-73
2023/08/10 09:27:55;;;;;;;1.53;1.23;;;19.70;62.10;;;;;;6170662;23;21031;-73
2023/08/10 09:30:25;;;;;;;1.67;0.93;;;19.70;62.10;;;;;;6170051;23;20837;-73
2023/08/10 09:32:53;;;;;;;1.50;1.20;;;19.70;62.10;;;;;;6171951;23;20458;-72
2023/08/10 09:35:21;;;;;;;1.70;1.13;;;19.70;62.10;;;;;;6172452;23;21001;-73
2023/08/10 09:37:50;;;;;;;1.60;1.17;;;19.70;62.10;;;;;;6171259;23;20471;-73
2023/08/10 09:40:21;;;;;;;1.60;0.90;;;19.60;61.80;;;;;;6173182;23;20437;-73
2023/08/10 09:42:49;;;;;;;1.00;0.70;;;19.70;62.10;;;;;;6171821;23;20404;-73
2023/08/10 09:45:19;;;;;;;1.13;0.70;;;19.70;62.10;;;;;;6170633;23;20417;-73
2023/08/10 09:47:48;;;;;;;1.57;1.00;;;19.70;62.10;;;;;;6170976;23;20829;-72
2023/08/10 09:50:18;;;;;;;1.33;0.90;;;19.70;62.10;;;;;;6171127;23;20711;-73
2023/08/10 09:52:49;;;;;;;1.40;1.03;;;19.70;62.30;;;;;;6168925;23;20435;-73
2023/08/10 09:55:17;;;;;;;1.40;1.07;;;19.70;62.10;;;;;;6171333;23;20398;-73
2023/08/10 09:57:46;;;;;;;1.50;1.00;;;19.70;62.10;;;;;;6146390;23;20759;-73
2023/08/10 10:00:18;;;;;;;1.20;1.00;;;19.60;62.10;;;;;;6173297;23;20392;-72
2023/08/10 10:02:49;;;;;;;1.63;1.13;;;19.70;62.10;;;;;;6169711;23;20523;-67
2023/08/10 10:05:18;;;;;;;1.80;1.10;;;19.70;62.00;;;;;;6170623;23;20448;-68
2023/08/10 10:08:04;;;;;;;1.73;1.00;;;19.70;62.10;;;;;;6170625;23;20774;-67
2023/08/10 10:10:36;;;;;;;1.37;0.90;;;19.70;62.10;;;;;;6145657;23;20420;-67
2023/08/10 10:13:06;;;;;;;1.40;1.10;;;19.70;62.00;;;;;;6168072;23;20492;-67
2023/08/10 10:15:37;;;;;;;2.23;1.40;;;19.70;62.00;;;;;;6170327;23;20902;-67
2023/08/10 10:18:08;;;;;;;1.10;0.87;;;19.70;62.00;;;;;;6171225;23;20486;-67
2023/08/10 10:20:40;;;;;;;1.43;0.97;;;19.70;62.10;;;;;;6171707;23;20454;-67
2023/08/10 10:23:15;;;;;;;2.40;1.10;;;19.70;62.20;;;;;;6170598;23;20435;-67
2023/08/10 10:25:57;;;;;;;1.70;1.00;;;19.70;62.10;;;;;;6171470;23;20447;-67
2023/08/10 10:28:27;;;;;;;1.80;1.20;;;19.70;62.10;;;;;;6171871;22;20441;-68
2023/08/10 10:30:55;;;;;;;1.80;1.27;;;19.70;62.00;;;;;;6170938;23;20877;-67
2023/08/10 10:33:25;;;;;;;1.33;0.93;;;19.70;62.10;;;;;;6170548;23;20526;-67
2023/08/10 10:36:09;;;;;;;1.03;0.70;;;19.70;62.00;;;;;;6169785;23;20492;-67
2023/08/10 10:38:55;;;;;;;2.37;1.20;;;19.70;61.90;;;;;;6170984;23;20440;-67
2023/08/10 10:41:31;;;;;;;1.50;1.00;;;19.70;62.00;;;;;;6171504;23;20505;-67
2023/08/10 10:44:03;;;;;;;1.40;0.87;;;19.70;62.00;;;;;;6169816;23;20906;-68
2023/08/10 10:46:40;;;;;;;1.60;1.27;;;19.70;61.90;;;;;;6171875;23;20912;-68
2023/08/10 10:49:13;;;;;;;1.37;1.03;;;19.70;62.00;;;;;;6169273;23;20744;-67
2023/08/10 10:51:58;;;;;;;1.20;0.70;;;19.70;61.90;;;;;;6171780;23;20382;-68
2023/08/10 10:54:28;;;;;;;1.63;1.00;;;19.70;61.90;;;;;;6171267;23;20447;-68
2023/08/10 10:56:56;;;;;;;1.17;0.87;;;19.70;62.00;;;;;;6173681;23;20419;-68
2023/08/10 10:59:25;;;;;;;1.00;0.70;;;19.70;61.80;;;;;;6143989;23;20924;-67
2023/08/10 11:01:55;;;;;;;1.40;1.00;;;19.70;61.90;;;;;;6172233;23;21227;-67
2023/08/10 11:04:25;;;;;;;1.00;0.87;;;19.70;62.00;;;;;;6169571;23;20515;-67
2023/08/10 11:06:59;;;;;;;1.30;0.90;;;19.70;61.90;;;;;;6171282;23;20409;-68
2023/08/10 11:09:27;;;;;;;1.40;0.90;;;19.70;62.00;;;;;;6171116;23;20417;-68
2023/08/10 11:11:56;;;;;;;1.37;0.90;;;19.70;62.00;;;;;;6170453;23;20431;-68
2023/08/10 11:14:28;;;;;;;1.30;0.67;;;19.70;61.90;;;;;;6170655;23;20471;-68
2023/08/10 11:16:56;;;;;;;1.70;1.00;;;19.70;62.00;;;;;;6170807;23;20406;-68
2023/08/10 11:19:28;;;;;;;3.30;0.90;;;19.70;61.80;;;;;;6169163;23;20421;-68
2023/08/10 11:21:57;;;;;;;1.73;1.00;;;19.80;61.90;;;;;;6171151;23;20883;-68
2023/08/10 11:24:28;;;;;;;1.53;0.83;;;19.80;61.80;;;;;;6169570;23;20916;-68
2023/08/10 11:26:58;;;;;;;2.10;1.07;;;19.70;61.80;;;;;;6171190;23;20975;-68
2023/08/10 11:29:27;;;;;;;1.13;0.87;;;19.70;61.70;;;;;;6169637;23;20529;-68
2023/08/10 11:31:56;;;;;;;2.23;1.10;;;19.80;61.90;;;;;;6170390;23;20719;-68
2023/08/10 11:34:29;;;;;;;2.00;1.10;;;19.80;61.90;;;;;;6168700;23;20500;-68
2023/08/10 11:36:58;;;;;;;1.93;0.80;;;19.80;61.80;;;;;;6172674;23;20401;-68
2023/08/10 11:39:26;;;;;;;1.10;0.90;;;19.80;61.90;;;;;;6170617;23;20442;-68
2023/08/10 11:41:55;;;;;;;1.40;0.83;;;19.80;61.80;;;;;;6171128;23;20434;-68
2023/08/10 11:44:26;;;;;;;3.57;1.10;;;19.80;61.80;;;;;;6169752;23;20482;-68
2023/08/10 11:46:57;;;;;;;1.10;0.80;;;19.80;61.90;;;;;;6169829;23;20497;-67
2023/08/10 11:49:29;;;;;;;1.50;0.90;;;19.80;61.90;;;;;;6169603;23;20393;-67
2023/08/10 11:52:03;;;;;;;1.10;0.80;;;19.80;61.90;;;;;;6170195;23;20374;-68
2023/08/10 11:54:34;;;;;;;1.40;1.03;;;19.80;61.90;;;;;;6141090;23;20525;-67
2023/08/10 11:57:11;;;;;;;1.40;1.00;;;19.80;62.00;;;;;;6141368;23;20377;-68
2023/08/10 11:59:40;;;;;;;2.10;0.90;;;19.80;62.00;;;;;;6142714;22;20443;-68
2023/08/10 12:02:11;;;;;;;1.43;1.10;;;19.80;62.00;;;;;;6141137;23;20732;-68
2023/08/10 12:04:41;;;;;;;1.70;1.10;;;19.80;62.00;;;;;;6140432;23;20383;-68
2023/08/10 12:07:10;;;;;;;1.73;0.80;;;19.80;61.90;;;;;;6140663;23;20384;-67
2023/08/10 12:09:47;;;;;;;1.93;1.20;;;19.80;61.80;;;;;;6141766;23;20458;-68
2023/08/10 12:12:17;;;;;;;1.67;1.20;;;19.80;61.90;;;;;;6139994;23;20684;-68
2023/08/10 12:14:46;;;;;;;1.50;1.03;;;19.90;62.10;;;;;;6141489;23;20699;-68
2023/08/10 12:17:16;;;;;;;1.13;0.70;;;19.90;61.90;;;;;;6144231;23;20468;-68
2023/08/10 12:19:45;;;;;;;1.03;0.87;;;19.80;61.90;;;;;;6170194;23;20405;-68
2023/08/10 12:22:14;;;;;;;1.60;1.10;;;19.90;61.80;;;;;;6169648;23;21040;-68
2023/08/10 12:24:42;;;;;;;2.33;1.30;;;19.90;61.80;;;;;;6170044;23;20424;-68
2023/08/10 12:27:10;;;;;;;1.60;1.20;;;19.90;61.80;;;;;;6171608;23;20394;-69
2023/08/10 12:29:39;;;;;;;5.30;4.07;;;20.10;61.30;;;;;;6171843;23;20389;-68
2023/08/10 12:32:08;;;;;;;4.60;4.00;;;20.20;57.80;;;;;;6171200;23;20423;-68
2023/08/10 12:34:39;;;;;;;4.03;3.13;;;20.20;59.60;;;;;;6172769;23;21004;-68
2023/08/10 12:37:09;;;;;;;7.40;3.83;;;20.20;59.10;;;;;;6171751;23;20790;-68
2023/08/10 12:39:37;;;;;;;4.43;3.90;;;20.20;59.30;;;;;;6142420;23;20374;-68
2023/08/10 12:42:06;;;;;;;5.33;3.87;;;20.10;59.50;;;;;;6143289;23;20389;-68
2023/08/10 12:44:34;;;;;;;6.07;3.90;;;20.10;59.60;;;;;;6142963;23;20397;-67
2023/08/10 12:47:03;;;;;;;5.83;3.93;;;20.10;59.90;;;;;;6142626;23;20896;-68
2023/08/10 12:49:32;;;;;;;5.50;4.40;;;20.10;60.00;;;;;;6142458;22;20415;-68
2023/08/10 12:52:00;;;;;;;3.97;3.13;;;20.00;60.00;;;;;;6141219;23;20393;-68
2023/08/10 12:54:30;;;;;;;4.90;3.87;;;20.00;60.10;;;;;;6141757;23;20476;-68
2023/08/10 12:56:58;;;;;;;4.90;3.23;;;20.00;60.40;;;;;;6142547;23;20915;-68
2023/08/10 12:59:26;;;;;;;3.00;2.70;;;20.00;60.40;;;;;;6140153;23;20429;-68
2023/08/10 13:01:55;;;;;;;3.50;3.20;;;20.00;60.50;;;;;;6142195;23;20398;-68